EGNS/IOM METAR and TAF weather

Enter ICAO airport designator
Station Type Date Time Source
EGNS METAR 2019/08/19 12:20 UTC NOAA

EGNS 191220Z 24017KT 220V280 9999 FEW025 17/10 Q1010 NOSIG


Station Type Date Time Source
EGNS Decoded METAR 2019/08/19 12:20 UTC NOAA

Station name not available
Aug 19, 2019 - 08:20 AM EDT / 2019.08.19 1220 UTC
Wind: from the WSW (240 degrees) at 20 MPH (17 KT) (direction variable):0
Visibility: greater than 7 mile(s):0
Sky conditions: mostly clear
Temperature: 62 F (17 C)
Dew Point: 50 F (10 C)
Relative Humidity: 63%
Pressure (altimeter): 29.83 in. Hg (1010 hPa)
ob: EGNS 191220Z 24017KT 220V280 9999 FEW025 17/10 Q1010 NOSIG
cycle: 12

Station Type Date Time Source
EGNS TAF 2019/01/16 05:00 UTC NOAA

TAF EGNS 160500 Z 1606/1615 28020KT 9999 FEW010 BKN025
TEMPO 1606/1609 6000 RA BKN010 PROB30
TEMPO 1613/1615 7000 -SHRA

Example: see airport list